sensor_id;sensor_type;location;lat;lon;timestamp;pressure;altitude;pressure_sealevel;temperature;humidity
13968;BME280;39536;52.198;9.920;2023-04-01T00:01:26;98646.91;;;10.68;100.00
13968;BME280;39536;52.198;9.920;2023-04-01T00:03:53;98643.38;;;10.69;100.00
13968;BME280;39536;52.198;9.920;2023-04-01T00:06:22;98643.09;;;10.59;100.00
13968;BME280;39536;52.198;9.920;2023-04-01T00:08:48;98654.00;;;10.66;100.00
13968;BME280;39536;52.198;9.920;2023-04-01T00:11:16;98640.66;;;10.70;100.00
13968;BME280;39536;52.198;9.920;2023-04-01T00:13:43;98638.38;;;10.66;100.00
13968;BME280;39536;52.198;9.920;2023-04-01T00:16:11;98637.63;;;10.63;100.00
13968;BME280;39536;52.198;9.920;2023-04-01T00:18:38;98642.00;;;10.63;100.00
13968;BME280;39536;52.198;9.920;2023-04-01T00:21:05;98646.06;;;10.67;100.00
13968;BME280;39536;52.198;9.920;2023-04-01T00:23:32;98647.84;;;10.67;100.00
13968;BME280;39536;52.198;9.920;2023-04-01T00:25:59;98643.47;;;10.67;100.00
13968;BME280;39536;52.198;9.920;2023-04-01T00:28:26;98638.63;;;10.75;100.00
13968;BME280;39536;52.198;9.920;2023-04-01T00:30:53;98643.91;;;10.74;100.00
13968;BME280;39536;52.198;9.920;2023-04-01T00:33:21;98639.84;;;10.70;100.00
13968;BME280;39536;52.198;9.920;2023-04-01T00:35:48;98642.25;;;10.73;100.00
13968;BME280;39536;52.198;9.920;2023-04-01T00:38:14;98646.31;;;10.77;100.00
13968;BME280;39536;52.198;9.920;2023-04-01T00:40:43;98640.91;;;10.80;100.00
13968;BME280;39536;52.198;9.920;2023-04-01T00:43:12;98642.69;;;10.79;100.00
13968;BME280;39536;52.198;9.920;2023-04-01T00:45:40;98642.13;;;10.74;100.00
13968;BME280;39536;52.198;9.920;2023-04-01T00:48:11;98641.31;;;10.74;100.00
13968;BME280;39536;52.198;9.920;2023-04-01T00:50:44;98642.69;;;10.79;100.00
13968;BME280;39536;52.198;9.920;2023-04-01T00:53:12;98640.09;;;10.79;100.00
13968;BME280;39536;52.198;9.920;2023-04-01T00:55:44;98644.41;;;10.66;100.00
13968;BME280;39536;52.198;9.920;2023-04-01T00:58:15;98645.88;;;10.70;100.00
13968;BME280;39536;52.198;9.920;2023-04-01T01:00:44;98642.00;;;10.63;100.00
13968;BME280;39536;52.198;9.920;2023-04-01T01:03:11;98648.31;;;10.59;100.00
13968;BME280;39536;52.198;9.920;2023-04-01T01:08:36;98644.88;;;10.58;100.00
13968;BME280;39536;52.198;9.920;2023-04-01T01:11:08;98651.78;;;10.59;100.00
13968;BME280;39536;52.198;9.920;2023-04-01T01:13:42;98653.72;;;10.56;100.00
13968;BME280;39536;52.198;9.920;2023-04-01T01:16:15;98645.56;;;10.48;100.00
13968;BME280;39536;52.198;9.920;2023-04-01T01:18:49;98646.69;;;10.44;100.00
13968;BME280;39536;52.198;9.920;2023-04-01T01:21:43;98645.56;;;10.48;100.00
13968;BME280;39536;52.198;9.920;2023-04-01T01:24:25;98641.50;;;10.44;100.00
13968;BME280;39536;52.198;9.920;2023-04-01T01:27:03;98641.38;;;10.45;100.00
13968;BME280;39536;52.198;9.920;2023-04-01T01:30:01;98643.53;;;10.38;100.00
13968;BME280;39536;52.198;9.920;2023-04-01T01:32:46;98645.75;;;10.45;100.00
13968;BME280;39536;52.198;9.920;2023-04-01T01:35:21;98644.19;;;10.42;100.00
13968;BME280;39536;52.198;9.920;2023-04-01T01:37:51;98636.66;;;10.37;100.00
13968;BME280;39536;52.198;9.920;2023-04-01T01:40:20;98633.13;;;10.38;100.00
13968;BME280;39536;52.198;9.920;2023-04-01T01:42:50;98632.28;;;10.38;100.00
13968;BME280;39536;52.198;9.920;2023-04-01T01:45:20;98638.34;;;10.38;100.00
13968;BME280;39536;52.198;9.920;2023-04-01T01:47:48;98632.75;;;10.30;100.00
13968;BME280;39536;52.198;9.920;2023-04-01T01:50:16;98634.44;;;10.31;100.00
13968;BME280;39536;52.198;9.920;2023-04-01T01:52:45;98643.63;;;10.23;100.00
13968;BME280;39536;52.198;9.920;2023-04-01T01:55:27;98650.25;;;10.28;100.00
13968;BME280;39536;52.198;9.920;2023-04-01T01:57:55;98636.91;;;10.18;100.00
13968;BME280;39536;52.198;9.920;2023-04-01T02:00:24;98641.28;;;10.18;100.00
13968;BME280;39536;52.198;9.920;2023-04-01T02:02:51;98644.53;;;10.22;100.00
13968;BME280;39536;52.198;9.920;2023-04-01T02:05:21;98650.97;;;10.30;100.00
13968;BME280;39536;52.198;9.920;2023-04-01T02:07:55;98650.59;;;10.36;100.00
13968;BME280;39536;52.198;9.920;2023-04-01T02:10:25;98648.75;;;10.38;100.00
13968;BME280;39536;52.198;9.920;2023-04-01T02:12:57;98645.19;;;10.39;100.00
13968;BME280;39536;52.198;9.920;2023-04-01T02:15:28;98647.91;;;10.38;100.00
13968;BME280;39536;52.198;9.920;2023-04-01T02:17:58;98648.81;;;10.37;100.00
13968;BME280;39536;52.198;9.920;2023-04-01T02:20:27;98642.91;;;10.35;100.00
13968;BME280;39536;52.198;9.920;2023-04-01T02:22:56;98648.81;;;10.37;100.00
13968;BME280;39536;52.198;9.920;2023-04-01T02:25:27;98648.09;;;10.35;100.00
13968;BME280;39536;52.198;9.920;2023-04-01T02:27:57;98638.41;;;10.37;100.00
13968;BME280;39536;52.198;9.920;2023-04-01T02:30:25;98642.72;;;10.38;100.00
13968;BME280;39536;52.198;9.920;2023-04-01T02:32:54;98648.00;;;10.36;100.00
13968;BME280;39536;52.198;9.920;2023-04-01T02:35:21;98652.94;;;10.41;100.00
13968;BME280;39536;52.198;9.920;2023-04-01T02:37:49;98645.94;;;10.42;100.00
13968;BME280;39536;52.198;9.920;2023-04-01T02:40:18;98650.22;;;10.43;100.00
13968;BME280;39536;52.198;9.920;2023-04-01T02:42:44;98651.72;;;10.47;100.00
13968;BME280;39536;52.198;9.920;2023-04-01T02:45:13;98646.59;;;10.45;100.00
13968;BME280;39536;52.198;9.920;2023-04-01T02:47:39;98645.56;;;10.48;100.00
13968;BME280;39536;52.198;9.920;2023-04-01T02:50:07;98650.66;;;10.49;100.00
13968;BME280;39536;52.198;9.920;2023-04-01T02:52:34;98649.13;;;10.47;100.00
13968;BME280;39536;52.198;9.920;2023-04-01T02:55:00;98651.78;;;10.45;100.00
13968;BME280;39536;52.198;9.920;2023-04-01T02:57:29;98657.94;;;10.44;100.00
13968;BME280;39536;52.198;9.920;2023-04-01T02:59:55;98653.94;;;10.38;100.00
13968;BME280;39536;52.198;9.920;2023-04-01T03:02:22;98654.69;;;10.40;100.00
13968;BME280;39536;52.198;9.920;2023-04-01T03:04:48;98650.31;;;10.41;100.00
13968;BME280;39536;52.198;9.920;2023-04-01T03:07:15;98660.44;;;10.46;100.00
13968;BME280;39536;52.198;9.920;2023-04-01T03:09:42;98650.59;;;10.36;100.00
13968;BME280;39536;52.198;9.920;2023-04-01T03:12:08;98663.91;;;10.32;100.00
13968;BME280;39536;52.198;9.920;2023-04-01T03:14:36;98660.56;;;10.30;100.00
13968;BME280;39536;52.198;9.920;2023-04-01T03:17:03;98661.84;;;10.37;100.00
13968;BME280;39536;52.198;9.920;2023-04-01T03:19:30;98669.38;;;10.42;100.00
13968;BME280;39536;52.198;9.920;2023-04-01T03:21:57;98666.59;;;10.45;100.00
13968;BME280;39536;52.198;9.920;2023-04-01T03:24:23;98660.63;;;10.43;100.00
13968;BME280;39536;52.198;9.920;2023-04-01T03:26:50;98670.31;;;10.40;100.00
13968;BME280;39536;52.198;9.920;2023-04-01T03:29:17;98669.44;;;10.40;100.00
13968;BME280;39536;52.198;9.920;2023-04-01T03:31:45;98671.88;;;10.43;100.00
13968;BME280;39536;52.198;9.920;2023-04-01T03:34:11;98667.03;;;10.37;100.00
13968;BME280;39536;52.198;9.920;2023-04-01T03:36:38;98666.13;;;10.38;100.00
13968;BME280;39536;52.198;9.920;2023-04-01T03:39:05;98669.75;;;10.35;100.00
13968;BME280;39536;52.198;9.920;2023-04-01T03:41:31;98663.53;;;10.38;100.00
13968;BME280;39536;52.198;9.920;2023-04-01T03:43:58;98673.81;;;10.39;100.00
13968;BME280;39536;52.198;9.920;2023-04-01T03:46:25;98669.75;;;10.35;100.00
13968;BME280;39536;52.198;9.920;2023-04-01T03:48:53;98669.44;;;10.40;100.00
13968;BME280;39536;52.198;9.920;2023-04-01T03:51:19;98672.81;;;10.42;100.00
13968;BME280;39536;52.198;9.920;2023-04-01T03:53:46;98678.84;;;10.43;100.00
13968;BME280;39536;52.198;9.920;2023-04-01T03:56:12;98680.53;;;10.44;100.00
13968;BME280;39536;52.198;9.920;2023-04-01T03:58:39;98670.78;;;10.47;100.00
13968;BME280;39536;52.198;9.920;2023-04-01T04:01:13;98665.84;;;10.43;100.00
13968;BME280;39536;52.198;9.920;2023-04-01T04:03:40;98669.94;;;10.47;100.00
13968;BME280;39536;52.198;9.920;2023-04-01T04:06:11;98672.53;;;10.47;100.00
13968;BME280;39536;52.198;9.920;2023-04-01T04:08:38;98669.19;;;10.45;100.00
13968;BME280;39536;52.198;9.920;2023-04-01T04:11:05;98671.16;;;10.41;100.00
13968;BME280;39536;52.198;9.920;2023-04-01T04:13:32;98684.88;;;10.43;100.00
13968;BME280;39536;52.198;9.920;2023-04-01T04:15:58;98674.66;;;10.40;100.00
13968;BME280;39536;52.198;9.920;2023-04-01T04:18:25;98679.69;;;10.43;100.00
13968;BME280;39536;52.198;9.920;2023-04-01T04:20:52;98678.97;;;10.41;100.00
13968;BME280;39536;52.198;9.920;2023-04-01T04:23:20;98684.44;;;10.36;100.00
13968;BME280;39536;52.198;9.920;2023-04-01T04:25:54;98682.38;;;10.42;100.00
13968;BME280;39536;52.198;9.920;2023-04-01T04:28:21;98679.59;;;10.30;100.00
13968;BME280;39536;52.198;9.920;2023-04-01T04:30:48;98681.19;;;10.33;100.00
13968;BME280;39536;52.198;9.920;2023-04-01T04:33:15;98687.97;;;10.35;100.00
13968;BME280;39536;52.198;9.920;2023-04-01T04:35:41;98684.91;;;10.29;100.00
13968;BME280;39536;52.198;9.920;2023-04-01T04:38:08;98694.19;;;10.33;100.00
13968;BME280;39536;52.198;9.920;2023-04-01T04:40:37;98690.56;;;10.35;100.00
13968;BME280;39536;52.198;9.920;2023-04-01T04:43:04;98689.81;;;10.33;100.00
13968;BME280;39536;52.198;9.920;2023-04-01T04:45:31;98689.00;;;10.33;100.00
13968;BME280;39536;52.198;9.920;2023-04-01T04:47:57;98696.59;;;10.36;100.00
13968;BME280;39536;52.198;9.920;2023-04-01T04:50:24;98696.03;;;10.31;100.00
13968;BME280;39536;52.198;9.920;2023-04-01T04:52:51;98699.69;;;10.28;100.00
13968;BME280;39536;52.198;9.920;2023-04-01T04:55:18;98695.41;;;10.27;100.00
13968;BME280;39536;52.198;9.920;2023-04-01T04:57:46;98703.72;;;10.18;100.00
13968;BME280;39536;52.198;9.920;2023-04-01T05:00:13;98702.25;;;10.14;100.00
13968;BME280;39536;52.198;9.920;2023-04-01T05:02:40;98704.22;;;10.10;100.00
13968;BME280;39536;52.198;9.920;2023-04-01T05:05:07;98699.00;;;10.10;100.00
13968;BME280;39536;52.198;9.920;2023-04-01T05:07:34;98699.38;;;10.04;100.00
13968;BME280;39536;52.198;9.920;2023-04-01T05:10:00;98700.97;;;10.07;100.00
13968;BME280;39536;52.198;9.920;2023-04-01T05:12:27;98704.66;;;10.03;100.00
13968;BME280;39536;52.198;9.920;2023-04-01T05:14:55;98707.25;;;10.03;100.00
13968;BME280;39536;52.198;9.920;2023-04-01T05:17:22;98709.97;;;10.01;100.00
13968;BME280;39536;52.198;9.920;2023-04-01T05:19:48;98704.84;;;10.00;100.00
13968;BME280;39536;52.198;9.920;2023-04-01T05:22:16;98711.56;;;10.04;100.00
13968;BME280;39536;52.198;9.920;2023-04-01T05:24:42;98710.59;;;10.05;100.00
13968;BME280;39536;52.198;9.920;2023-04-01T05:27:09;98710.03;;;10.00;100.00
13968;BME280;39536;52.198;9.920;2023-04-01T05:29:36;98718.59;;;10.02;100.00
13968;BME280;39536;52.198;9.920;2023-04-01T05:32:04;98713.75;;;9.95;100.00
13968;BME280;39536;52.198;9.920;2023-04-01T05:34:30;98715.41;;;9.97;100.00
13968;BME280;39536;52.198;9.920;2023-04-01T05:36:57;98714.41;;;9.99;100.00
13968;BME280;39536;52.198;9.920;2023-04-01T05:39:24;98720.25;;;10.03;100.00
13968;BME280;39536;52.198;9.920;2023-04-01T05:41:50;98724.81;;;9.99;100.00
13968;BME280;39536;52.198;9.920;2023-04-01T05:44:17;98725.56;;;10.01;100.00
13968;BME280;39536;52.198;9.920;2023-04-01T05:46:44;98720.25;;;10.03;100.00
13968;BME280;39536;52.198;9.920;2023-04-01T05:49:12;98723.72;;;10.03;100.00
13968;BME280;39536;52.198;9.920;2023-04-01T05:51:38;98724.19;;;10.10;100.00
13968;BME280;39536;52.198;9.920;2023-04-01T05:54:05;98731.41;;;10.05;100.00
13968;BME280;39536;52.198;9.920;2023-04-01T05:56:32;98723.34;;;10.09;100.00
13968;BME280;39536;52.198;9.920;2023-04-01T05:58:59;98729.03;;;10.16;100.00
13968;BME280;39536;52.198;9.920;2023-04-01T06:01:25;98731.34;;;10.21;100.00
13968;BME280;39536;52.198;9.920;2023-04-01T06:03:52;98721.56;;;10.24;100.00
13968;BME280;39536;52.198;9.920;2023-04-01T06:06:23;98728.41;;;10.27;100.00
13968;BME280;39536;52.198;9.920;2023-04-01T06:08:52;98728.03;;;10.33;100.00
13968;BME280;39536;52.198;9.920;2023-04-01T06:11:26;98731.56;;;10.32;100.00
13968;BME280;39536;52.198;9.920;2023-04-01T06:14:11;98736.84;;;10.30;100.00
13968;BME280;39536;52.198;9.920;2023-04-01T06:16:53;98737.59;;;10.32;100.00
13968;BME280;39536;52.198;9.920;2023-04-01T06:19:32;98733.34;;;10.31;100.00
13968;BME280;39536;52.198;9.920;2023-04-01T06:31:03;98751.25;;;10.36;100.00
13968;BME280;39536;52.198;9.920;2023-04-01T06:33:51;98749.13;;;10.43;100.00
13968;BME280;39536;52.198;9.920;2023-04-01T06:36:39;98749.50;;;10.51;100.00
13968;BME280;39536;52.198;9.920;2023-04-01T06:39:40;98756.00;;;10.58;100.00
13968;BME280;39536;52.198;9.920;2023-04-01T06:42:27;98750.97;;;10.55;100.00
13968;BME280;39536;52.198;9.920;2023-04-01T06:45:08;98754.03;;;10.61;100.00
13968;BME280;39536;52.198;9.920;2023-04-01T06:47:51;98756.28;;;10.53;100.00
13968;BME280;39536;52.198;9.920;2023-04-01T06:50:27;98760.44;;;10.56;100.00
13968;BME280;39536;52.198;9.920;2023-04-01T06:53:00;98758.16;;;10.51;100.00
13968;BME280;39536;52.198;9.920;2023-04-01T06:55:36;98762.22;;;10.55;100.00
13968;BME280;39536;52.198;9.920;2023-04-01T06:58:13;98757.31;;;10.51;100.00
13968;BME280;39536;52.198;9.920;2023-04-01T07:00:49;98762.41;;;10.52;100.00
13968;BME280;39536;52.198;9.920;2023-04-01T07:03:21;98760.09;;;10.48;100.00
13968;BME280;39536;52.198;9.920;2023-04-01T07:05:49;98760.75;;;10.51;100.00
13968;BME280;39536;52.198;9.920;2023-04-01T07:08:18;98767.44;;;10.55;100.00
13968;BME280;39536;52.198;9.920;2023-04-01T07:10:50;98769.31;;;10.53;100.00
13968;BME280;39536;52.198;9.920;2023-04-01T07:13:24;98771.53;;;10.59;100.00
13968;BME280;39536;52.198;9.920;2023-04-01T07:16:03;98771.06;;;10.67;100.00
13968;BME280;39536;52.198;9.920;2023-04-01T07:18:34;98779.31;;;10.74;100.00
13968;BME280;39536;52.198;9.920;2023-04-01T07:21:04;98784.72;;;10.71;100.00
13968;BME280;39536;52.198;9.920;2023-04-01T07:23:38;98782.94;;;10.71;100.00
13968;BME280;39536;52.198;9.920;2023-04-01T07:26:14;98790.56;;;10.74;100.00
13968;BME280;39536;52.198;9.920;2023-04-01T07:28:43;98786.22;;;10.75;100.00
13968;BME280;39536;52.198;9.920;2023-04-01T07:31:18;98791.97;;;10.80;100.00
13968;BME280;39536;52.198;9.920;2023-04-01T07:33:54;98787.41;;;10.83;100.00
13968;BME280;39536;52.198;9.920;2023-04-01T07:36:31;98791.50;;;10.88;100.00
13968;BME280;39536;52.198;9.920;2023-04-01T07:39:07;98794.13;;;10.88;100.00
13968;BME280;39536;52.198;9.920;2023-04-01T07:41:45;98795.03;;;10.86;100.00
13968;BME280;39536;52.198;9.920;2023-04-01T07:44:25;98801.38;;;10.82;100.00
13968;BME280;39536;52.198;9.920;2023-04-01T07:46:59;98804.25;;;10.92;100.00
13968;BME280;39536;52.198;9.920;2023-04-01T07:49:36;98801.63;;;10.92;100.00
13968;BME280;39536;52.198;9.920;2023-04-01T07:52:12;98805.06;;;10.93;100.00
13968;BME280;39536;52.198;9.920;2023-04-01T07:54:44;98808.31;;;10.96;100.00
13968;BME280;39536;52.198;9.920;2023-04-01T07:57:18;98815.03;;;11.00;100.00
13968;BME280;39536;52.198;9.920;2023-04-01T07:59:54;98812.31;;;11.02;100.00
13968;BME280;39536;52.198;9.920;2023-04-01T08:02:36;98810.28;;;11.07;100.00
13968;BME280;39536;52.198;9.920;2023-04-01T08:05:15;98819.38;;;11.14;100.00
13968;BME280;39536;52.198;9.920;2023-04-01T08:07:47;98823.56;;;11.17;100.00
13968;BME280;39536;52.198;9.920;2023-04-01T08:10:21;98827.44;;;11.24;100.00
13968;BME280;39536;52.198;9.920;2023-04-01T08:12:56;98825.47;;;11.27;100.00
13968;BME280;39536;52.198;9.920;2023-04-01T08:15:30;98824.38;;;11.31;100.00
13968;BME280;39536;52.198;9.920;2023-04-01T08:18:11;98825.16;;;11.46;100.00
13968;BME280;39536;52.198;9.920;2023-04-01T08:20:45;98830.09;;;11.51;100.00
13968;BME280;39536;52.198;9.920;2023-04-01T08:23:16;98835.34;;;11.64;100.00
13968;BME280;39536;52.198;9.920;2023-04-01T08:25:48;98836.81;;;11.68;100.00
13968;BME280;39536;52.198;9.920;2023-04-01T08:28:20;98834.88;;;11.71;100.00
13968;BME280;39536;52.198;9.920;2023-04-01T08:30:52;98835.38;;;11.76;100.00
13968;BME280;39536;52.198;9.920;2023-04-01T08:33:24;98833.63;;;11.77;100.00
13968;BME280;39536;52.198;9.920;2023-04-01T08:35:55;98830.72;;;11.82;100.00
13968;BME280;39536;52.198;9.920;2023-04-01T08:38:28;98831.38;;;11.85;100.00
13968;BME280;39536;52.198;9.920;2023-04-01T08:40:58;98832.38;;;11.83;100.00
13968;BME280;39536;52.198;9.920;2023-04-01T08:43:40;98840.59;;;11.91;100.00
13968;BME280;39536;52.198;9.920;2023-04-01T08:46:24;98836.28;;;11.90;100.00
13968;BME280;39536;52.198;9.920;2023-04-01T08:49:06;98844.25;;;12.01;100.00
13968;BME280;39536;52.198;9.920;2023-04-01T08:52:00;98851.25;;;12.00;100.00
13968;BME280;39536;52.198;9.920;2023-04-01T08:54:45;98852.22;;;11.99;100.00
13968;BME280;39536;52.198;9.920;2023-04-01T08:57:15;98856.97;;;11.93;100.00
13968;BME280;39536;52.198;9.920;2023-04-01T08:59:57;98850.19;;;11.90;100.00
13968;BME280;39536;52.198;9.920;2023-04-01T09:05:47;98859.72;;;12.04;100.00
13968;BME280;39536;52.198;9.920;2023-04-01T09:08:33;98850.03;;;12.19;100.00
13968;BME280;39536;52.198;9.920;2023-04-01T09:11:14;98856.22;;;12.31;100.00
13968;BME280;39536;52.198;9.920;2023-04-01T09:22:35;98857.50;;;12.38;100.00
13968;BME280;39536;52.198;9.920;2023-04-01T09:25:29;98854.75;;;12.27;100.00
13968;BME280;39536;52.198;9.920;2023-04-01T09:28:05;98860.38;;;12.33;100.00
13968;BME280;39536;52.198;9.920;2023-04-01T09:30:46;98853.31;;;12.35;100.00
13968;BME280;39536;52.198;9.920;2023-04-01T09:33:47;98869.78;;;12.36;100.00
13968;BME280;39536;52.198;9.920;2023-04-01T09:36:31;98873.25;;;12.36;100.00
13968;BME280;39536;52.198;9.920;2023-04-01T09:42:07;98878.16;;;12.41;100.00
13968;BME280;39536;52.198;9.920;2023-04-01T09:44:36;98881.06;;;12.36;100.00
13968;BME280;39536;52.198;9.920;2023-04-01T09:47:16;98881.72;;;12.40;100.00
13968;BME280;39536;52.198;9.920;2023-04-01T09:49:58;98883.19;;;12.44;100.00
13968;BME280;39536;52.198;9.920;2023-04-01T09:52:38;98883.06;;;12.45;100.00
13968;BME280;39536;52.198;9.920;2023-04-01T09:55:28;98890.81;;;12.47;100.00
13968;BME280;39536;52.198;9.920;2023-04-01T09:58:32;98898.94;;;12.42;100.00
13968;BME280;39536;52.198;9.920;2023-04-01T10:01:25;98906.69;;;12.44;100.00
13968;BME280;39536;52.198;9.920;2023-04-01T10:04:29;98901.97;;;12.36;100.00
13968;BME280;39536;52.198;9.920;2023-04-01T10:07:25;98905.09;;;12.29;100.00
13968;BME280;39536;52.198;9.920;2023-04-01T10:10:28;98915.53;;;12.29;100.00
13968;BME280;39536;52.198;9.920;2023-04-01T10:16:57;98919.09;;;12.28;100.00
13968;BME280;39536;52.198;9.920;2023-04-01T10:34:56;98927.25;;;12.48;100.00
13968;BME280;39536;52.198;9.920;2023-04-01T10:37:47;98926.78;;;12.56;100.00
13968;BME280;39536;52.198;9.920;2023-04-01T10:43:54;98926.16;;;12.65;100.00
13968;BME280;39536;52.198;9.920;2023-04-01T10:47:01;98923.34;;;12.68;100.00
13968;BME280;39536;52.198;9.920;2023-04-01T10:49:47;98932.22;;;12.79;100.00
13968;BME280;39536;52.198;9.920;2023-04-01T10:53:06;98928.25;;;12.73;100.00
13968;BME280;39536;52.198;9.920;2023-04-01T11:02:29;98935.88;;;12.63;100.00
13968;BME280;39536;52.198;9.920;2023-04-01T11:05:52;98933.78;;;12.68;100.00
13968;BME280;39536;52.198;9.920;2023-04-01T11:11:47;98939.56;;;12.99;100.00
13968;BME280;39536;52.198;9.920;2023-04-01T11:14:58;98944.88;;;13.10;100.00
13968;BME280;39536;52.198;9.920;2023-04-01T11:17:57;98950.75;;;13.27;100.00
13968;BME280;39536;52.198;9.920;2023-04-01T11:20:52;98948.13;;;13.27;100.00
13968;BME280;39536;52.198;9.920;2023-04-01T11:23:46;98950.03;;;13.25;100.00
13968;BME280;39536;52.198;9.920;2023-04-01T11:26:32;98954.50;;;13.23;100.00
13968;BME280;39536;52.198;9.920;2023-04-01T11:32:09;98956.81;;;13.40;100.00
13968;BME280;39536;52.198;9.920;2023-04-01T11:34:54;98959.19;;;13.56;100.00
13968;BME280;39536;52.198;9.920;2023-04-01T11:37:33;98954.66;;;13.58;100.00
13968;BME280;39536;52.198;9.920;2023-04-01T11:40:11;98960.44;;;13.50;100.00
13968;BME280;39536;52.198;9.920;2023-04-01T11:42:45;98956.25;;;13.48;100.00
13968;BME280;39536;52.198;9.920;2023-04-01T11:45:21;98964.88;;;13.37;100.00
13968;BME280;39536;52.198;9.920;2023-04-01T11:48:25;98967.91;;;13.31;100.00
13968;BME280;39536;52.198;9.920;2023-04-01T11:51:15;98965.59;;;13.39;100.00
13968;BME280;39536;52.198;9.920;2023-04-01T11:53:52;98968.91;;;13.54;100.00
13968;BME280;39536;52.198;9.920;2023-04-01T11:56:37;98968.59;;;13.58;100.00
13968;BME280;39536;52.198;9.920;2023-04-01T12:02:10;98979.69;;;13.62;100.00
13968;BME280;39536;52.198;9.920;2023-04-01T12:04:58;98982.28;;;13.75;100.00
13968;BME280;39536;52.198;9.920;2023-04-01T12:07:50;98978.94;;;13.73;100.00
13968;BME280;39536;52.198;9.920;2023-04-01T12:10:21;98987.50;;;13.75;100.00
13968;BME280;39536;52.198;9.920;2023-04-01T12:12:54;98987.91;;;13.81;100.00
13968;BME280;39536;52.198;9.920;2023-04-01T12:15:32;98988.47;;;13.74;100.00
13968;BME280;39536;52.198;9.920;2023-04-01T12:18:10;98995.66;;;13.70;100.00
13968;BME280;39536;52.198;9.920;2023-04-01T12:20:49;98993.69;;;13.61;100.00
13968;BME280;39536;52.198;9.920;2023-04-01T12:23:35;98992.22;;;13.70;100.00
13968;BME280;39536;52.198;9.920;2023-04-01T12:26:19;98997.19;;;13.61;100.00
13968;BME280;39536;52.198;9.920;2023-04-01T12:29:03;98996.75;;;13.68;100.00
13968;BME280;39536;52.198;9.920;2023-04-01T12:31:40;99001.75;;;13.71;100.00
13968;BME280;39536;52.198;9.920;2023-04-01T12:34:29;99005.84;;;13.62;100.00
13968;BME280;39536;52.198;9.920;2023-04-01T12:37:06;99005.13;;;13.60;100.00
13968;BME280;39536;52.198;9.920;2023-04-01T12:39:51;99005.44;;;13.68;100.00
13968;BME280;39536;52.198;9.920;2023-04-01T12:42:36;99014.81;;;13.83;100.00
13968;BME280;39536;52.198;9.920;2023-04-01T12:45:22;99017.63;;;13.93;100.00
13968;BME280;39536;52.198;9.920;2023-04-01T12:48:08;99020.03;;;13.96;100.00
13968;BME280;39536;52.198;9.920;2023-04-01T12:51:03;99013.75;;;13.86;100.00
13968;BME280;39536;52.198;9.920;2023-04-01T12:53:45;99018.06;;;13.87;100.00
13968;BME280;39536;52.198;9.920;2023-04-01T12:56:19;99028.19;;;13.92;100.00
13968;BME280;39536;52.198;9.920;2023-04-01T12:59:14;99031.28;;;14.09;100.00
13968;BME280;39536;52.198;9.920;2023-04-01T13:02:00;99035.03;;;14.42;100.00
13968;BME280;39536;52.198;9.920;2023-04-01T13:05:11;99035.28;;;14.39;100.00
13968;BME280;39536;52.198;9.920;2023-04-01T13:07:59;99036.44;;;14.35;100.00
13968;BME280;39536;52.198;9.920;2023-04-01T13:10:50;99036.72;;;14.43;100.00
13968;BME280;39536;52.198;9.920;2023-04-01T13:13:37;99046.34;;;14.55;100.00
13968;BME280;39536;52.198;9.920;2023-04-01T13:16:11;99037.63;;;14.79;100.00
13968;BME280;39536;52.198;9.920;2023-04-01T13:18:52;99045.38;;;14.81;100.00
13968;BME280;39536;52.198;9.920;2023-04-01T13:21:30;99049.97;;;14.66;100.00
13968;BME280;39536;52.198;9.920;2023-04-01T13:24:05;99053.16;;;14.45;100.00
13968;BME280;39536;52.198;9.920;2023-04-01T13:26:41;99058.59;;;14.42;100.00
13968;BME280;39536;52.198;9.920;2023-04-01T13:29:14;99056.38;;;14.25;100.00
13968;BME280;39536;52.198;9.920;2023-04-01T13:32:00;99059.34;;;14.07;100.00
13968;BME280;39536;52.198;9.920;2023-04-01T13:34:43;99063.06;;;13.92;100.00
13968;BME280;39536;52.198;9.920;2023-04-01T13:37:24;99064.66;;;13.69;100.00
13968;BME280;39536;52.198;9.920;2023-04-01T13:40:05;99068.53;;;13.38;100.00
13968;BME280;39536;52.198;9.920;2023-04-01T13:42:45;99067.09;;;13.34;100.00
13968;BME280;39536;52.198;9.920;2023-04-01T13:45:16;99073.94;;;13.22;100.00
13968;BME280;39536;52.198;9.920;2023-04-01T13:54:08;99086.97;;;12.69;100.00
13968;BME280;39536;52.198;9.920;2023-04-01T13:56:48;99096.31;;;12.46;100.00
13968;BME280;39536;52.198;9.920;2023-04-01T13:59:46;99091.34;;;12.42;100.00
13968;BME280;39536;52.198;9.920;2023-04-01T14:02:50;99100.88;;;12.43;100.00
13968;BME280;39536;52.198;9.920;2023-04-01T14:05:32;99097.97;;;12.47;100.00
13968;BME280;39536;52.198;9.920;2023-04-01T14:08:09;99102.00;;;12.39;100.00
13968;BME280;39536;52.198;9.920;2023-04-01T14:10:43;99101.84;;;12.28;100.00
13968;BME280;39536;52.198;9.920;2023-04-01T14:13:18;99112.78;;;12.06;100.00
13968;BME280;39536;52.198;9.920;2023-04-01T14:15:57;99113.63;;;11.92;100.00
13968;BME280;39536;52.198;9.920;2023-04-01T14:18:37;99119.84;;;11.89;100.00
13968;BME280;39536;52.198;9.920;2023-04-01T14:21:13;99128.72;;;11.87;100.00
13968;BME280;39536;52.198;9.920;2023-04-01T14:23:57;99128.50;;;11.75;100.00
13968;BME280;39536;52.198;9.920;2023-04-01T14:26:50;99138.19;;;11.73;100.00
13968;BME280;39536;52.198;9.920;2023-04-01T14:29:28;99146.56;;;11.64;100.00
13968;BME280;39536;52.198;9.920;2023-04-01T14:32:06;99148.78;;;11.70;100.00
13968;BME280;39536;52.198;9.920;2023-04-01T14:34:47;99153.94;;;11.72;100.00
13968;BME280;39536;52.198;9.920;2023-04-01T14:37:38;99153.19;;;11.70;100.00
13968;BME280;39536;52.198;9.920;2023-04-01T14:40:27;99155.06;;;11.82;100.00
13968;BME280;39536;52.198;9.920;2023-04-01T14:43:01;99158.50;;;11.83;100.00
13968;BME280;39536;52.198;9.920;2023-04-01T14:45:49;99164.50;;;11.85;100.00